createdAt,value
2019-06-10T00:00:13.743Z,96276.76
2019-06-10T00:02:35.364Z,96271.69
2019-06-10T00:05:07.178Z,96269.18
2019-06-10T00:07:35.704Z,96279.28
2019-06-10T00:10:07.451Z,96278.16
2019-06-10T00:12:36.134Z,96277.37
2019-06-10T00:15:07.803Z,96270.66
2019-06-10T00:17:52.338Z,96267.30
2019-06-10T00:20:08.287Z,96262.84
2019-06-10T00:22:36.817Z,96259.29
2019-06-10T00:25:08.583Z,96251.22
2019-06-10T00:27:37.022Z,96246.75
2019-06-10T00:30:12.121Z,96251.55
2019-06-10T00:32:41.213Z,96250.34
2019-06-10T00:35:12.245Z,96254.85
2019-06-10T00:37:41.880Z,96249.87
2019-06-10T00:40:14.139Z,96245.73
2019-06-10T00:42:41.822Z,96235.94
2019-06-10T00:45:17.497Z,96248.08
2019-06-10T00:47:41.417Z,96253.41
2019-06-10T00:50:14.533Z,96251.44
2019-06-10T00:52:42.198Z,96257.19
2019-06-10T00:55:12.548Z,96253.02
2019-06-10T00:57:41.823Z,96249.52
2019-06-10T01:00:23.130Z,96237.80
2019-06-10T01:02:41.145Z,96218.27
2019-06-10T01:05:12.059Z,96212.95
2019-06-10T01:07:41.424Z,96198.25
2019-06-10T01:10:13.141Z,96200.76
2019-06-10T01:12:40.789Z,96217.69
2019-06-10T01:15:12.108Z,96233.14
2019-06-10T01:17:41.716Z,96222.00
2019-06-10T01:20:14.410Z,96217.33
2019-06-10T01:22:41.624Z,96219.30
2019-06-10T01:25:12.352Z,96214.06
2019-06-10T01:27:40.938Z,96215.80
2019-06-10T01:30:18.707Z,96214.01
2019-06-10T01:32:41.623Z,96197.20
2019-06-10T01:35:11.498Z,96184.91
2019-06-10T01:37:41.380Z,96192.84
2019-06-10T01:40:13.076Z,96188.17
2019-06-10T01:42:41.243Z,96174.39
2019-06-10T01:45:11.508Z,96176.73
2019-06-10T01:47:41.679Z,96191.41
2019-06-10T01:50:12.490Z,96202.33
2019-06-10T01:52:41.213Z,96206.52
2019-06-10T01:55:12.354Z,96213.50
2019-06-10T01:57:41.342Z,96215.29
2019-06-10T02:00:15.911Z,96209.52
2019-06-10T02:02:44.634Z,96203.12
2019-06-10T02:05:14.580Z,96201.19
2019-06-10T02:07:42.205Z,96209.61
2019-06-10T02:10:13.746Z,96212.03
2019-06-10T02:12:41.685Z,96205.45
2019-06-10T02:15:13.508Z,96205.01
2019-06-10T02:17:41.690Z,96188.77
2019-06-10T02:20:12.960Z,96185.32
2019-06-10T02:22:41.180Z,96184.33
2019-06-10T02:25:10.966Z,96188.09
2019-06-10T02:27:41.520Z,96186.56
2019-06-10T02:30:18.898Z,96187.33
2019-06-10T02:32:42.869Z,96189.98
2019-06-10T02:35:18.065Z,96193.77
2019-06-10T02:37:44.456Z,96200.52
2019-06-10T02:40:16.629Z,96197.14
2019-06-10T02:42:44.338Z,96185.85
2019-06-10T02:45:17.348Z,96179.75
2019-06-10T02:47:44.304Z,96184.79
2019-06-10T02:50:18.858Z,96185.55
2019-06-10T02:52:44.794Z,96188.17
2019-06-10T02:55:15.650Z,96187.25
2019-06-10T02:57:44.785Z,96186.80
2019-06-10T03:00:20.920Z,96195.97
2019-06-10T03:02:45.361Z,96190.30
2019-06-10T03:05:17.564Z,96194.85
2019-06-10T03:07:45.716Z,96196.05
2019-06-10T03:10:16.375Z,96195.72
2019-06-10T03:12:44.892Z,96193.42
2019-06-10T03:15:13.356Z,96199.40
2019-06-10T03:17:42.909Z,96222.75
2019-06-10T03:20:12.368Z,96243.47
2019-06-10T03:22:42.270Z,96261.97
2019-06-10T03:25:12.976Z,96291.62
2019-06-10T03:27:42.464Z,96308.16
2019-06-10T03:30:17.115Z,96309.66
2019-06-10T03:32:46.633Z,96297.00
2019-06-10T03:35:13.227Z,96284.66
2019-06-10T03:37:42.418Z,96293.30
2019-06-10T03:40:13.063Z,96297.70
2019-06-10T03:42:42.756Z,96299.58
2019-06-10T03:45:12.594Z,96316.86
2019-06-10T03:47:42.691Z,96312.84
2019-06-10T03:50:13.401Z,96301.67
2019-06-10T03:52:43.146Z,96281.25
2019-06-10T03:55:12.416Z,96274.11
2019-06-10T03:57:42.332Z,96270.70
2019-06-10T04:00:13.918Z,96255.42
2019-06-10T04:02:43.078Z,96243.25
2019-06-10T04:05:13.249Z,96242.66
2019-06-10T04:07:42.705Z,96240.34
2019-06-10T04:10:12.586Z,96235.78
2019-06-10T04:12:43.281Z,96234.43
2019-06-10T04:15:12.389Z,96229.20
2019-06-10T04:17:42.846Z,96247.84
2019-06-10T04:20:15.281Z,96244.63
2019-06-10T04:22:41.697Z,96229.06
2019-06-10T04:25:12.120Z,96213.72
2019-06-10T04:27:42.416Z,96215.39
2019-06-10T04:30:12.801Z,96216.07
2019-06-10T04:32:42.926Z,96220.46
2019-06-10T04:35:12.694Z,96217.39
2019-06-10T04:37:42.818Z,96214.45
2019-06-10T04:40:13.390Z,96217.05
2019-06-10T04:42:43.529Z,96215.27
2019-06-10T04:45:12.352Z,96216.80
2019-06-10T04:47:43.039Z,96208.66
2019-06-10T04:50:24.090Z,96199.67
2019-06-10T04:52:43.073Z,96192.56
2019-06-10T04:55:12.780Z,96198.74
2019-06-10T04:57:43.079Z,96206.22
2019-06-10T05:00:14.579Z,96205.22
2019-06-10T05:02:43.024Z,96209.11
2019-06-10T05:05:13.122Z,96211.04
2019-06-10T05:07:42.821Z,96196.58
2019-06-10T05:10:12.409Z,96194.75
2019-06-10T05:12:43.216Z,96199.67
2019-06-10T05:15:12.528Z,96191.84
2019-06-10T05:17:43.734Z,96205.58
2019-06-10T05:20:12.598Z,96202.41
2019-06-10T05:22:42.439Z,96204.29
2019-06-10T05:25:12.866Z,96193.77
2019-06-10T05:27:42.984Z,96177.89
2019-06-10T05:30:12.370Z,96166.87
2019-06-10T05:32:43.004Z,96160.69
2019-06-10T05:35:12.371Z,96153.62
2019-06-10T05:37:42.313Z,96152.50
2019-06-10T05:40:12.795Z,96141.81
2019-06-10T05:42:42.600Z,96147.31
2019-06-10T05:45:12.303Z,96139.20
2019-06-10T05:47:42.747Z,96159.22
2019-06-10T05:50:12.899Z,96166.06
2019-06-10T05:52:42.684Z,96154.92
2019-06-10T05:55:12.134Z,96174.40
2019-06-10T05:57:42.878Z,96158.05
2019-06-10T06:00:14.799Z,96131.50
2019-06-10T06:02:43.287Z,96121.03
2019-06-10T06:05:12.839Z,96123.44
2019-06-10T06:07:42.353Z,96137.19
2019-06-10T06:10:13.019Z,96129.48
2019-06-10T06:12:42.514Z,96140.12
2019-06-10T06:15:12.901Z,96127.31
2019-06-10T06:17:43.164Z,96131.28
2019-06-10T06:20:13.284Z,96139.20
2019-06-10T06:22:42.827Z,96139.31
2019-06-10T06:25:15.304Z,96155.83
2019-06-10T06:27:42.622Z,96155.41
2019-06-10T06:30:18.229Z,96149.03
2019-06-10T06:32:43.622Z,96147.84
2019-06-10T06:35:12.673Z,96147.35
2019-06-10T06:37:42.837Z,96136.13
2019-06-10T06:40:13.261Z,96140.16
2019-06-10T06:42:43.286Z,96158.27
2019-06-10T06:45:12.719Z,96146.80
2019-06-10T06:47:43.529Z,96141.51
2019-06-10T06:50:13.062Z,96140.03
2019-06-10T06:53:15.393Z,96135.80
2019-06-10T06:55:12.794Z,96139.06
2019-06-10T06:57:43.316Z,96145.36
2019-06-10T07:00:35.221Z,96161.84
2019-06-10T07:02:43.599Z,96174.03
2019-06-10T07:05:12.661Z,96181.67
2019-06-10T07:07:43.312Z,96175.86
2019-06-10T07:10:12.273Z,96189.19
2019-06-10T07:12:43.840Z,96188.48
2019-06-10T07:15:13.036Z,96186.94
2019-06-10T07:17:45.125Z,96204.70
2019-06-10T07:20:12.647Z,96202.69
2019-06-10T07:22:42.736Z,96199.09
2019-06-10T07:25:12.424Z,96194.84
2019-06-10T07:27:45.086Z,96210.05
2019-06-10T07:30:14.716Z,96228.44
2019-06-10T07:32:45.370Z,96232.95
2019-06-10T07:35:13.016Z,96226.22
2019-06-10T07:37:43.964Z,96239.48
2019-06-10T07:40:13.012Z,96228.03
2019-06-10T07:42:44.113Z,96227.70
2019-06-10T07:45:13.066Z,96217.12
2019-06-10T07:47:43.775Z,96200.25
2019-06-10T07:50:12.332Z,96172.45
2019-06-10T07:52:46.057Z,96177.45
2019-06-10T07:55:12.871Z,96191.02
2019-06-10T07:57:43.664Z,96184.30
2019-06-10T08:00:13.798Z,96177.56
2019-06-10T08:02:44.050Z,96199.27
2019-06-10T08:05:13.035Z,96200.70
2019-06-10T08:07:43.805Z,96176.20
2019-06-10T08:10:13.433Z,96183.86
2019-06-10T08:12:44.785Z,96197.94
2019-06-10T08:15:12.615Z,96187.47
2019-06-10T08:17:42.888Z,96159.56
2019-06-10T08:20:13.443Z,96171.11
2019-06-10T08:22:50.804Z,96174.56
2019-06-10T08:25:12.499Z,96170.34
2019-06-10T08:27:44.988Z,96159.34
2019-06-10T08:30:32.929Z,96147.26
2019-06-10T08:33:03.394Z,96152.09
2019-06-10T08:35:41.481Z,96154.32
2019-06-10T08:38:02.463Z,96157.16
2019-06-10T08:40:32.591Z,96159.16
2019-06-10T08:43:04.032Z,96153.06
2019-06-10T08:45:33.302Z,96146.05
2019-06-10T08:48:02.696Z,96134.70
2019-06-10T08:50:33.663Z,96121.87
2019-06-10T08:53:13.988Z,96127.94
2019-06-10T08:55:33.480Z,96128.30
2019-06-10T08:58:02.910Z,96131.66
2019-06-10T09:00:33.726Z,96133.11
2019-06-10T09:03:04.089Z,96132.11
2019-06-10T09:05:32.838Z,96131.05
2019-06-10T09:08:02.786Z,96121.29
2019-06-10T09:10:33.934Z,96126.70
2019-06-10T09:13:02.750Z,96128.59
2019-06-10T09:15:32.479Z,96129.95
2019-06-10T09:18:02.659Z,96127.20
2019-06-10T09:20:33.188Z,96125.09
2019-06-10T09:23:18.185Z,96120.84
2019-06-10T09:25:33.350Z,96128.45
2019-06-10T09:28:02.461Z,96122.53
2019-06-10T09:30:33.343Z,96125.55
2019-06-10T09:33:04.164Z,96127.45
2019-06-10T09:35:32.319Z,96122.33
2019-06-10T09:38:03.509Z,96115.05
2019-06-10T09:41:00.318Z,96114.28
2019-06-10T09:43:23.319Z,96098.05
2019-06-10T09:45:56.246Z,96092.13
2019-06-10T09:48:24.034Z,96101.64
2019-06-10T09:50:57.852Z,96098.11
2019-06-10T09:53:33.366Z,96100.01
2019-06-10T09:55:55.641Z,96093.52
2019-06-10T09:58:24.192Z,96088.66
2019-06-10T10:00:57.851Z,96085.09
2019-06-10T10:03:28.915Z,96086.16
2019-06-10T10:06:09.832Z,96087.22
2019-06-10T10:08:27.517Z,96078.26
2019-06-10T10:10:58.754Z,96072.03
2019-06-10T10:13:26.704Z,96070.41
2019-06-10T10:15:55.302Z,96070.12
2019-06-10T10:18:23.865Z,96077.14
2019-06-10T10:20:58.440Z,96072.77
2019-06-10T10:23:22.778Z,96064.90
2019-06-10T10:25:56.372Z,96064.62
2019-06-10T10:28:25.009Z,96058.39
2019-06-10T10:30:57.074Z,96056.77
2019-06-10T10:33:25.382Z,96051.56
2019-06-10T10:35:52.701Z,96049.61
2019-06-10T10:38:22.917Z,96045.81
2019-06-10T10:40:56.544Z,96040.66
2019-06-10T10:43:31.901Z,96033.05
2019-06-10T10:45:57.477Z,96019.14
2019-06-10T10:48:22.604Z,96015.55
2019-06-10T10:50:55.492Z,96013.88
2019-06-10T10:53:23.694Z,96012.19
2019-06-10T10:55:51.992Z,96010.28
2019-06-10T10:58:22.912Z,96007.81
2019-06-10T11:00:54.516Z,96001.55
2019-06-10T11:03:22.864Z,95990.94
2019-06-10T11:05:57.237Z,95991.73
2019-06-10T11:08:22.778Z,95969.17
2019-06-10T11:10:57.362Z,95975.09
2019-06-10T11:13:26.165Z,95975.09
2019-06-10T11:15:56.456Z,95974.33
2019-06-10T11:18:24.814Z,95955.59
2019-06-10T11:20:54.081Z,95960.98
2019-06-10T11:23:22.925Z,95958.30
2019-06-10T11:25:56.566Z,95964.30
2019-06-10T11:28:22.834Z,95955.59
2019-06-10T11:30:56.362Z,95954.78
2019-06-10T11:33:22.772Z,95956.60
2019-06-10T11:35:53.603Z,95958.34
2019-06-10T11:38:23.484Z,95958.34
2019-06-10T11:40:55.968Z,95940.67
2019-06-10T11:43:22.646Z,95940.67
2019-06-10T11:45:58.862Z,95950.98
2019-06-10T11:48:23.648Z,95950.19
2019-06-10T11:50:54.709Z,95946.95
2019-06-10T11:53:22.910Z,95942.34
2019-06-10T11:55:51.735Z,95918.13
2019-06-10T11:58:22.287Z,95906.91
2019-06-10T12:00:54.363Z,95886.15
2019-06-10T12:03:22.986Z,95886.15
2019-06-10T12:05:53.751Z,95894.17
2019-06-10T12:08:23.405Z,95862.05
2019-06-10T12:10:54.794Z,95862.05
2019-06-10T12:13:22.616Z,95865.74
2019-06-10T12:16:49.415Z,95858.16
2019-06-10T12:18:22.888Z,95848.64
2019-06-10T12:20:55.625Z,95841.27
2019-06-10T12:23:22.176Z,95834.14
2019-06-10T12:25:54.572Z,95815.44
2019-06-10T12:28:20.981Z,95812.25
2019-06-10T12:30:51.224Z,95793.45
2019-06-10T12:33:24.869Z,95783.98
2019-06-10T12:35:51.806Z,95776.05
2019-06-10T12:38:22.501Z,95770.80
2019-06-10T12:40:51.683Z,95762.77
2019-06-10T12:43:22.936Z,95758.34
2019-06-10T12:45:53.911Z,95748.42
2019-06-10T12:48:22.181Z,95737.52
2019-06-10T12:50:53.260Z,95742.13
2019-06-10T12:53:22.915Z,95735.32
2019-06-10T12:55:53.640Z,95735.32
2019-06-10T12:58:22.587Z,95725.22
2019-06-10T13:00:53.797Z,95718.47
2019-06-10T13:03:23.788Z,95704.81
2019-06-10T13:05:53.333Z,95714.88
2019-06-10T13:08:23.984Z,95713.14
2019-06-10T13:10:53.263Z,95718.11
2019-06-10T13:13:22.737Z,95717.75
2019-06-10T13:15:53.270Z,95720.05
2019-06-10T13:18:23.871Z,95729.80
2019-06-10T13:20:53.780Z,95719.04
2019-06-10T13:23:28.487Z,95719.01
2019-06-10T13:25:58.106Z,95719.54
2019-06-10T13:28:22.493Z,95722.48
2019-06-10T13:30:54.013Z,95718.05
2019-06-10T13:33:22.928Z,95720.09
2019-06-10T13:35:53.566Z,95720.73
2019-06-10T13:38:22.799Z,95722.61
2019-06-10T13:40:53.282Z,95718.44
2019-06-10T13:43:23.124Z,95713.22
2019-06-10T13:45:53.301Z,95711.30
2019-06-10T13:48:25.678Z,95695.39
2019-06-10T13:50:52.898Z,95693.11
2019-06-10T13:53:21.438Z,95677.80
2019-06-10T13:55:56.928Z,95682.05
2019-06-10T13:58:22.853Z,95683.98
2019-06-10T14:00:53.342Z,95690.55
2019-06-10T14:03:22.759Z,95688.42
2019-06-10T14:05:57.589Z,95685.27
2019-06-10T14:08:23.045Z,95673.00
2019-06-10T14:10:53.666Z,95657.88
2019-06-10T14:13:23.563Z,95661.23
2019-06-10T14:15:53.251Z,95659.25
2019-06-10T14:18:23.156Z,95650.01
2019-06-10T14:20:53.282Z,95645.62
2019-06-10T14:23:22.301Z,95640.54
2019-06-10T14:25:52.637Z,95645.78
2019-06-10T14:28:38.469Z,95640.60
2019-06-10T14:30:53.696Z,95635.95
2019-06-10T14:33:23.326Z,95637.31
2019-06-10T14:35:53.336Z,95634.10
2019-06-10T14:38:22.225Z,95624.14
2019-06-10T14:40:52.632Z,95629.48
2019-06-10T14:43:23.216Z,95623.80
2019-06-10T14:45:53.411Z,95619.95
2019-06-10T14:48:23.380Z,95611.77
2019-06-10T14:50:51.900Z,95609.05
2019-06-10T14:53:23.087Z,95602.17
2019-06-10T14:55:52.891Z,95605.73
2019-06-10T14:58:22.789Z,95599.84
2019-06-10T15:00:54.362Z,95598.94
2019-06-10T15:03:20.937Z,95579.31
2019-06-10T15:05:49.344Z,95578.34
2019-06-10T15:08:19.755Z,95575.80
2019-06-10T15:10:48.293Z,95565.27
2019-06-10T15:13:16.693Z,95564.39
2019-06-10T15:15:46.434Z,95559.66
2019-06-10T15:18:18.058Z,95554.57
2019-06-10T15:20:45.167Z,95545.88
2019-06-10T15:23:16.840Z,95541.44
2019-06-10T15:25:52.577Z,95533.87
2019-06-10T15:28:15.967Z,95538.51
2019-06-10T15:30:43.954Z,95533.75
2019-06-10T15:33:14.711Z,95530.50
2019-06-10T15:35:42.941Z,95531.26
2019-06-10T15:38:13.738Z,95532.89
2019-06-10T15:40:43.303Z,95534.03
2019-06-10T15:43:11.908Z,95536.80
2019-06-10T15:45:40.382Z,95529.27
2019-06-10T15:48:10.197Z,95527.02
2019-06-10T15:50:38.642Z,95532.42
2019-06-10T15:53:07.041Z,95541.84
2019-06-10T15:56:05.855Z,95548.98
2019-06-10T15:58:05.599Z,95562.75
2019-06-10T16:00:34.314Z,95564.50
2019-06-10T16:03:02.905Z,95571.69
2019-06-10T16:05:32.188Z,95574.97
2019-06-10T16:08:02.142Z,95573.27
2019-06-10T16:10:32.712Z,95565.70
2019-06-10T16:13:03.261Z,95565.27
2019-06-10T16:15:33.110Z,95552.13
2019-06-10T16:18:02.809Z,95544.94
2019-06-10T16:20:32.343Z,95543.80
2019-06-10T16:23:02.965Z,95542.14
2019-06-10T16:25:31.089Z,95550.00
2019-06-10T16:27:59.510Z,95664.17
2019-06-10T16:30:27.887Z,95660.36
2019-06-10T16:32:56.309Z,95682.49
2019-06-10T16:35:26.795Z,95718.34
2019-06-10T16:37:56.854Z,95766.38
2019-06-10T16:40:27.072Z,95798.03
2019-06-10T16:42:55.501Z,95848.11
2019-06-10T16:45:29.124Z,95786.80
2019-06-10T16:47:59.019Z,95786.80
2019-06-10T16:50:27.577Z,95784.58
2019-06-10T16:52:55.992Z,95773.88
2019-06-10T16:55:25.765Z,95724.68
2019-06-10T16:57:59.298Z,95726.83
2019-06-10T17:00:26.358Z,95673.66
2019-06-10T17:02:55.222Z,95676.62
2019-06-10T17:05:27.042Z,95745.98
2019-06-10T17:07:53.836Z,95815.77
2019-06-10T17:10:24.053Z,95822.03
2019-06-10T17:13:03.208Z,95807.25
2019-06-10T17:15:31.339Z,95796.03
2019-06-10T17:17:59.713Z,95808.53
2019-06-10T17:20:29.658Z,95815.18
2019-06-10T17:22:59.942Z,95840.00
2019-06-10T17:25:29.612Z,95852.44
2019-06-10T17:27:58.057Z,95859.02
2019-06-10T17:30:27.243Z,95854.02
2019-06-10T17:32:56.864Z,95843.31
2019-06-10T17:35:26.224Z,95844.18
2019-06-10T17:37:54.736Z,95850.94
2019-06-10T17:40:24.919Z,95855.28
2019-06-10T17:42:53.385Z,95861.53
2019-06-10T17:45:25.753Z,95857.51
2019-06-10T17:47:52.481Z,95858.12
2019-06-10T17:50:22.274Z,95857.38
2019-06-10T17:52:53.468Z,95860.88
2019-06-10T17:55:25.708Z,95863.98
2019-06-10T17:57:51.544Z,95876.45
2019-06-10T18:00:20.320Z,95877.43
2019-06-10T18:02:48.899Z,95869.78
2019-06-10T18:05:17.558Z,95872.64
2019-06-10T18:07:46.055Z,95866.46
2019-06-10T18:10:15.400Z,95871.30
2019-06-10T18:12:43.816Z,95867.75
2019-06-10T18:15:12.726Z,95868.25
2019-06-10T18:17:42.600Z,95871.45
2019-06-10T18:20:13.674Z,95860.64
2019-06-10T18:22:42.083Z,95867.31
2019-06-10T18:25:12.346Z,95862.73
2019-06-10T18:27:40.932Z,95866.19
2019-06-10T18:30:14.152Z,95863.20
2019-06-10T18:32:42.968Z,95864.83
2019-06-10T18:35:11.492Z,95858.12
2019-06-10T18:37:42.153Z,95856.69
2019-06-10T18:40:14.471Z,95860.61
2019-06-10T18:42:41.885Z,95854.84
2019-06-10T18:45:14.985Z,95848.41
2019-06-10T18:47:43.768Z,95849.76
2019-06-10T18:50:14.156Z,95843.83
2019-06-10T18:52:43.310Z,95843.58
2019-06-10T18:55:12.481Z,95838.26
2019-06-10T18:57:42.570Z,95840.45
2019-06-10T19:00:14.670Z,95837.72
2019-06-10T19:02:43.411Z,95835.00
2019-06-10T19:05:13.274Z,95832.30
2019-06-10T19:07:42.901Z,95827.94
2019-06-10T19:10:12.514Z,95825.45
2019-06-10T19:12:42.485Z,95824.14
2019-06-10T19:15:12.155Z,95818.22
2019-06-10T19:17:43.987Z,95815.52
2019-06-10T19:20:12.993Z,95821.64
2019-06-10T19:22:43.245Z,95817.48
2019-06-10T19:25:12.833Z,95809.33
2019-06-10T19:27:44.333Z,95802.81
2019-06-10T19:30:12.453Z,95802.17
2019-06-10T19:32:44.148Z,95799.67
2019-06-10T19:35:13.088Z,95804.25
2019-06-10T19:37:42.316Z,95811.08
2019-06-10T19:40:12.436Z,95804.97
2019-06-10T19:42:43.390Z,95812.56
2019-06-10T19:45:12.656Z,95806.64
2019-06-10T19:47:44.086Z,95803.84
2019-06-10T19:50:12.948Z,95811.52
2019-06-10T19:52:43.978Z,95810.03
2019-06-10T19:55:13.228Z,95806.62
2019-06-10T19:57:41.825Z,95802.72
2019-06-10T20:00:12.617Z,95797.20
2019-06-10T20:02:44.066Z,95785.28
2019-06-10T20:05:12.479Z,95788.21
2019-06-10T20:07:43.970Z,95787.36
2019-06-10T20:10:13.256Z,95781.85
2019-06-10T20:12:44.843Z,95789.80
2019-06-10T20:15:23.276Z,95805.05
2019-06-10T20:17:52.692Z,95807.98
2019-06-10T20:20:22.644Z,95795.58
2019-06-10T20:22:53.310Z,95796.59
2019-06-10T20:25:22.418Z,95789.85
2019-06-10T20:27:52.402Z,95788.80
2019-06-10T20:30:28.172Z,95781.00
2019-06-10T20:32:55.736Z,95781.89
2019-06-10T20:35:23.251Z,95765.73
2019-06-10T20:37:53.821Z,95759.47
2019-06-10T20:40:24.197Z,95762.13
2019-06-10T20:42:52.661Z,95753.18
2019-06-10T20:45:23.165Z,95751.38
2019-06-10T20:47:53.301Z,95755.89
2019-06-10T20:50:22.239Z,95742.91
2019-06-10T20:52:52.408Z,95732.34
2019-06-10T20:55:24.781Z,95720.97
2019-06-10T20:58:02.336Z,95716.91
2019-06-10T21:00:36.862Z,95722.50
2019-06-10T21:03:06.360Z,95709.95
2019-06-10T21:05:35.229Z,95712.44
2019-06-10T21:08:05.404Z,95719.91
2019-06-10T21:10:36.098Z,95709.06
2019-06-10T21:13:06.240Z,95716.74
2019-06-10T21:15:36.057Z,95714.20
2019-06-10T21:18:05.186Z,95716.85
2019-06-10T21:20:33.762Z,95714.73
2019-06-10T21:23:03.024Z,95704.80
2019-06-10T21:25:32.617Z,95706.65
2019-06-10T21:28:03.084Z,95694.03
2019-06-10T21:30:41.444Z,95692.69
2019-06-10T21:33:03.621Z,95694.27
2019-06-10T21:35:34.185Z,95686.78
2019-06-10T21:38:03.017Z,95683.31
2019-06-10T21:40:33.031Z,95685.88
2019-06-10T21:43:02.897Z,95677.83
2019-06-10T21:45:32.669Z,95689.64
2019-06-10T21:48:02.619Z,95684.21
2019-06-10T21:50:33.277Z,95680.72
2019-06-10T21:53:02.972Z,95676.51
2019-06-10T21:55:33.139Z,95674.31
2019-06-10T21:58:03.803Z,95673.11
2019-06-10T22:00:51.633Z,95668.78
2019-06-10T22:03:04.611Z,95668.76
2019-06-10T22:05:33.214Z,95672.55
2019-06-10T22:08:03.141Z,95676.81
2019-06-10T22:10:33.594Z,95683.86
2019-06-10T22:13:03.215Z,95687.89
2019-06-10T22:15:33.394Z,95691.92
2019-06-10T22:18:02.300Z,95691.44
2019-06-10T22:20:32.429Z,95701.08
2019-06-10T22:23:02.597Z,95710.97
2019-06-10T22:25:32.829Z,95721.06
2019-06-10T22:28:02.809Z,95725.75
2019-06-10T22:30:32.156Z,95726.95
2019-06-10T22:33:03.057Z,95720.97
2019-06-10T22:35:30.894Z,95729.06
2019-06-10T22:37:59.377Z,95741.15
2019-06-10T22:40:27.769Z,95739.80
2019-06-10T22:42:56.757Z,95735.21
2019-06-10T22:45:25.345Z,95736.25
2019-06-10T22:47:55.294Z,95732.43
2019-06-10T22:50:24.076Z,95740.48
2019-06-10T22:52:54.587Z,95750.42
2019-06-10T22:55:22.619Z,95752.43
2019-06-10T22:57:54.701Z,95743.80
2019-06-10T23:00:22.227Z,95738.23
2019-06-10T23:02:53.333Z,95742.02
2019-06-10T23:05:23.172Z,95740.37
2019-06-10T23:07:53.284Z,95751.33
2019-06-10T23:10:22.936Z,95747.70
2019-06-10T23:12:54.773Z,95733.71
2019-06-10T23:15:23.551Z,95735.98
2019-06-10T23:17:55.112Z,95734.53
2019-06-10T23:20:22.121Z,95732.73
2019-06-10T23:22:54.418Z,95740.26
2019-06-10T23:25:22.096Z,95743.62
2019-06-10T23:27:53.215Z,95749.30
2019-06-10T23:30:22.373Z,95746.82
2019-06-10T23:32:54.481Z,95740.48
2019-06-10T23:35:23.128Z,95752.17
2019-06-10T23:37:55.083Z,95751.94
2019-06-10T23:40:23.391Z,95746.84
2019-06-10T23:42:53.031Z,95748.04
2019-06-10T23:45:22.426Z,95745.95
2019-06-10T23:47:52.911Z,95734.34
2019-06-10T23:50:22.603Z,95749.08
2019-06-10T23:52:54.162Z,95747.37
2019-06-10T23:55:22.751Z,95747.24
2019-06-10T23:57:53.053Z,95750.36
